Time;durP1;ratioP1;P1;durP2;ratioP2;P2;SDS_P1;SDS_P2;PMS_P1;PMS_P2;Temp;Humidity;BMP_temperature;BMP_pressure;BME280_temperature;BME280_humidity;BME280_pressure;Samples;Min_cycle;Max_cycle;Signal;HPM_P1;HPM_P2
2022/12/28 00:01:18;;;;;;;7.17;1.70;;;;;;;4.94;77.08;101157.03;5041200;28;20209;-74
2022/12/28 00:03:44;;;;;;;3.27;1.27;;;;;;;4.92;77.44;101137.75;5049492;28;20752;-73
2022/12/28 00:06:11;;;;;;;2.83;1.20;;;;;;;4.91;77.57;101149.22;5043187;28;20208;-74
2022/12/28 00:08:39;;;;;;;4.03;1.50;;;;;;;4.90;77.48;101148.34;5045692;28;20644;-74
2022/12/28 00:11:07;;;;;;;6.40;1.87;;;;;;;4.87;77.65;101141.38;5043049;28;20201;-74
2022/12/28 00:13:35;;;;;;;3.63;1.30;;;;;;;4.86;77.59;101128.25;5042549;28;20221;-74
2022/12/28 00:16:07;;;;;;;3.53;1.53;;;;;;;4.85;77.45;101122.09;5044387;28;20227;-73
2022/12/28 00:18:35;;;;;;;7.13;1.83;;;;;;;4.84;77.52;101130.06;5039536;28;20803;-74
2022/12/28 00:21:01;;;;;;;2.77;1.40;;;;;;;4.84;77.55;101115.09;5041923;28;20245;-74
2022/12/28 00:23:28;;;;;;;3.57;1.27;;;;;;;4.85;77.53;101105.41;5039367;28;20646;-73
2022/12/28 00:25:55;;;;;;;3.37;1.80;;;;;;;4.87;77.30;101093.00;5050478;28;20202;-74
2022/12/28 00:28:22;;;;;;;2.83;1.10;;;;;;;4.84;77.57;101087.84;5043585;28;20686;-73
2022/12/28 00:30:48;;;;;;;4.23;1.53;;;;;;;4.83;77.46;101094.06;5044798;28;20202;-73
2022/12/28 00:33:15;;;;;;;4.27;1.60;;;;;;;4.81;77.28;101087.97;5039327;28;20233;-74
2022/12/28 00:35:42;;;;;;;4.07;1.93;;;;;;;4.77;77.66;101092.47;5043645;28;20212;-74
2022/12/28 00:38:09;;;;;;;3.93;1.57;;;;;;;4.76;77.64;101085.47;5045245;28;20232;-73
2022/12/28 00:40:35;;;;;;;2.77;1.53;;;;;;;4.77;77.90;101084.56;5043042;28;20212;-74
2022/12/28 00:43:02;;;;;;;3.13;1.97;;;;;;;4.74;77.71;101081.16;5051917;28;20240;-73
2022/12/28 00:45:28;;;;;;;5.50;1.70;;;;;;;4.71;77.81;101081.25;5062554;28;20680;-74
2022/12/28 00:47:55;;;;;;;4.87;1.77;;;;;;;4.69;77.84;101076.00;5052427;28;20629;-74
2022/12/28 00:50:21;;;;;;;3.80;1.90;;;;;;;4.69;78.06;101077.78;5050271;28;20690;-74
2022/12/28 00:52:49;;;;;;;4.53;2.47;;;;;;;4.68;78.13;101076.91;5057931;28;20387;-74
2022/12/28 00:55:16;;;;;;;5.17;1.83;;;;;;;4.68;77.86;101069.00;5048502;28;20205;-74
2022/12/28 00:57:42;;;;;;;6.87;1.60;;;;;;;4.66;77.81;101062.09;5049049;28;20213;-74
2022/12/28 01:00:10;;;;;;;3.60;1.30;;;;;;;4.65;78.01;101061.22;5042279;28;20287;-74
2022/12/28 01:02:36;;;;;;;4.80;1.53;;;;;;;4.63;78.04;101063.03;5053509;28;20234;-74
2022/12/28 01:05:03;;;;;;;5.80;1.87;;;;;;;4.61;77.78;101048.16;5046864;28;20222;-73
2022/12/28 01:07:29;;;;;;;6.73;1.70;;;;;;;4.58;77.82;101048.25;5052287;28;20208;-73
2022/12/28 01:09:57;;;;;;;2.70;1.60;;;;;;;4.54;78.36;101021.13;5048702;28;20206;-73
2022/12/28 01:12:24;;;;;;;4.20;2.10;;;;;;;4.51;78.62;101029.97;5049261;28;20690;-74
2022/12/28 01:14:50;;;;;;;4.53;1.70;;;;;;;4.48;78.68;101021.31;5047480;28;20225;-74
2022/12/28 01:17:17;;;;;;;4.00;2.20;;;;;;;4.46;78.95;101015.25;5051641;28;20209;-74
2022/12/28 01:19:43;;;;;;;6.33;2.83;;;;;;;4.43;78.69;101007.44;5054588;28;20200;-73
2022/12/28 01:22:10;;;;;;;3.00;1.97;;;;;;;4.41;78.54;101009.25;5039365;28;20229;-73
2022/12/28 01:24:36;;;;;;;3.07;1.53;;;;;;;4.37;79.11;101005.84;5042768;28;20912;-73
2022/12/28 01:27:04;;;;;;;5.67;2.27;;;;;;;4.33;79.31;101001.56;5041783;28;20623;-74
2022/12/28 01:29:31;;;;;;;3.77;1.93;;;;;;;4.31;79.49;101005.16;5036161;28;20589;-73
2022/12/28 01:31:57;;;;;;;4.27;2.10;;;;;;;4.29;79.72;100988.56;5047492;28;20264;-73
2022/12/28 01:34:24;;;;;;;3.53;2.20;;;;;;;4.27;79.78;100983.31;5044898;28;20881;-73
2022/12/28 01:36:50;;;;;;;4.87;2.30;;;;;;;4.29;80.05;100985.91;5043712;28;20206;-74
2022/12/28 01:39:17;;;;;;;3.73;1.87;;;;;;;4.27;80.18;100970.16;5039757;28;20206;-73
2022/12/28 01:41:43;;;;;;;4.27;2.23;;;;;;;4.25;80.20;100969.34;5041732;28;20752;-73
2022/12/28 01:44:45;;;;;;;6.67;2.10;;;;;;;4.25;80.54;100976.38;5042720;28;20240;-73
2022/12/28 01:47:15;;;;;;;3.60;1.90;;;;;;;4.24;80.69;100966.75;5026168;28;20210;-73
2022/12/28 01:49:48;;;;;;;5.93;1.67;;;;;;;4.26;80.70;100967.56;5021090;28;20213;-73
2022/12/28 01:52:20;;;;;;;6.83;2.63;;;;;;;4.26;81.15;100964.91;5033388;28;20249;-74
2022/12/28 01:54:50;;;;;;;4.93;1.83;;;;;;;4.27;81.21;100961.38;5045108;28;20205;-74
2022/12/28 01:57:19;;;;;;;4.33;1.60;;;;;;;4.32;81.01;100955.00;5051862;28;20216;-73
2022/12/28 01:59:53;;;;;;;4.70;1.47;;;;;;;4.35;81.55;100944.38;5041857;28;20202;-73
2022/12/28 02:02:21;;;;;;;5.13;1.40;;;;;;;4.36;81.56;100938.19;5055682;28;20227;-73
2022/12/28 02:04:48;;;;;;;7.23;1.70;;;;;;;4.41;81.52;100930.13;5048939;28;20221;-74
2022/12/28 02:07:22;;;;;;;2.73;1.37;;;;;;;4.42;81.06;100916.91;5051231;28;20225;-74
2022/12/28 02:09:49;;;;;;;5.93;2.00;;;;;;;4.44;81.26;100919.50;5052904;28;20205;-74
2022/12/28 02:12:17;;;;;;;5.10;1.70;;;;;;;4.46;80.82;100913.25;5059557;28;20725;-73
2022/12/28 02:14:44;;;;;;;4.90;1.60;;;;;;;4.49;81.06;100906.97;5059957;28;20220;-73
2022/12/28 02:17:13;;;;;;;4.40;1.47;;;;;;;4.50;80.78;100899.03;5049989;28;20198;-73
2022/12/28 02:19:44;;;;;;;4.37;1.80;;;;;;;4.52;80.78;100901.59;5055804;28;20714;-74
2022/12/28 02:22:46;;;;;;;4.27;1.60;;;;;;;4.56;81.00;100892.69;5048048;28;20241;-74
2022/12/28 02:25:43;;;;;;;3.83;1.23;;;;;;;4.59;80.64;100895.22;5050316;28;20208;-74
2022/12/28 02:28:23;;;;;;;3.87;1.60;;;;;;;4.59;80.88;100884.66;5049754;28;20211;-74
2022/12/28 02:30:59;;;;;;;3.93;1.50;;;;;;;4.62;80.59;100887.19;5049438;28;21770;-73
2022/12/28 02:33:34;;;;;;;3.93;1.80;;;;;;;4.64;80.20;100881.88;5041039;28;20228;-73
2022/12/28 02:36:07;;;;;;;3.83;1.60;;;;;;;4.63;80.55;100872.25;5051119;28;20256;-74
2022/12/28 02:38:40;;;;;;;3.93;1.80;;;;;;;4.63;80.64;100878.38;5050384;28;20260;-74
2022/12/28 02:41:10;;;;;;;4.30;1.83;;;;;;;4.63;80.67;100873.09;5044332;28;20276;-74
2022/12/28 02:43:37;;;;;;;4.07;2.27;;;;;;;4.64;80.79;100864.28;5051018;28;20248;-74
2022/12/28 02:51:55;;;;;;;3.20;1.80;;;;;;;4.71;80.60;100854.34;5048522;28;20204;-74
2022/12/28 02:57:33;;;;;;;5.10;1.73;;;;;;;4.77;80.29;100843.56;5059034;28;20212;-74
2022/12/28 03:00:05;;;;;;;4.23;1.73;;;;;;;4.77;80.29;100836.53;5055238;28;20205;-74
2022/12/28 03:03:04;;;;;;;4.53;1.90;;;;;;;4.80;80.60;100822.38;5060110;28;20224;-74
2022/12/28 03:08:30;;;;;;;4.13;2.53;;;;;;;4.88;80.31;100833.47;5044209;28;20752;-73
2022/12/28 03:11:02;;;;;;;4.90;2.00;;;;;;;4.95;80.33;100811.22;5056631;28;20274;-73
2022/12/28 03:13:42;;;;;;;3.90;1.90;;;;;;;4.98;80.35;100807.63;5050924;28;20224;-73
2022/12/28 03:16:15;;;;;;;4.97;1.83;;;;;;;4.98;80.30;100816.41;5055240;28;20267;-73
2022/12/28 03:32:42;;;;;;;5.77;2.03;;;;;;;5.17;80.51;100764.63;5049622;28;20257;-74
2022/12/28 03:35:10;;;;;;;5.60;2.07;;;;;;;5.16;80.98;100760.25;5044502;28;20293;-74
2022/12/28 03:37:42;;;;;;;4.70;2.00;;;;;;;5.19;80.89;100756.66;5042586;28;20209;-74
2022/12/28 03:40:12;;;;;;;5.53;1.90;;;;;;;5.20;81.24;100772.41;5047195;28;20825;-74
2022/12/28 03:45:35;;;;;;;3.70;2.53;;;;;;;5.24;81.47;100770.50;5049379;28;20581;-73
2022/12/28 03:48:03;;;;;;;5.57;2.23;;;;;;;5.23;81.68;100756.44;5052320;28;20213;-74
2022/12/28 03:50:34;;;;;;;4.90;1.97;;;;;;;5.23;81.62;100759.06;5039402;28;20230;-73
2022/12/28 03:53:01;;;;;;;3.87;2.40;;;;;;;5.24;81.80;100744.09;5043614;28;20727;-74
2022/12/28 03:55:28;;;;;;;5.87;2.23;;;;;;;5.24;82.06;100742.31;5043614;28;20200;-74
2022/12/28 03:57:54;;;;;;;6.67;2.23;;;;;;;5.25;82.13;100740.53;5052363;28;20202;-74
2022/12/28 04:00:20;;;;;;;5.50;2.30;;;;;;;5.27;82.37;100733.41;5053569;28;20208;-74
2022/12/28 04:02:47;;;;;;;3.77;2.03;;;;;;;5.27;82.71;100727.28;5044722;28;20230;-74
2022/12/28 04:05:14;;;;;;;5.93;2.17;;;;;;;5.28;83.06;100719.28;5054369;28;20213;-73
2022/12/28 04:07:42;;;;;;;3.80;1.90;;;;;;;5.28;82.86;100708.72;5039800;28;20230;-74
2022/12/28 04:10:09;;;;;;;3.87;2.10;;;;;;;5.32;83.10;100696.25;5047788;28;20342;-73
2022/12/28 04:12:35;;;;;;;5.57;2.40;;;;;;;5.29;83.27;100684.03;5057159;28;20216;-74
2022/12/28 04:15:02;;;;;;;5.53;2.10;;;;;;;5.34;83.58;100673.31;5048340;28;21692;-74
2022/12/28 04:17:29;;;;;;;3.00;1.77;;;;;;;5.34;83.41;100668.88;5051559;28;20201;-74
2022/12/28 04:19:55;;;;;;;5.53;2.23;;;;;;;5.36;83.51;100667.03;5050997;28;20217;-74
2022/12/28 04:22:22;;;;;;;4.20;1.87;;;;;;;5.42;83.76;100648.28;5048919;28;20230;-74
2022/12/28 04:24:49;;;;;;;4.40;2.00;;;;;;;5.38;83.48;100641.41;5054380;28;20205;-74
2022/12/28 04:27:16;;;;;;;3.23;1.90;;;;;;;5.39;83.70;100652.81;5045067;28;20217;-74
2022/12/28 04:29:42;;;;;;;2.70;2.03;;;;;;;5.38;83.74;100629.97;5044384;28;20679;-74
2022/12/28 04:32:09;;;;;;;5.23;2.20;;;;;;;5.38;84.02;100628.19;5048877;28;20201;-74
2022/12/28 04:34:35;;;;;;;3.23;1.90;;;;;;;5.40;83.98;100631.63;5059280;22;20229;-73
2022/12/28 04:37:01;;;;;;;2.83;1.90;;;;;;;5.39;83.90;100618.47;5045889;28;20209;-72
2022/12/28 04:39:28;;;;;;;4.47;2.00;;;;;;;5.40;83.91;100618.41;5042276;28;20225;-72
2022/12/28 04:41:56;;;;;;;3.80;1.80;;;;;;;5.45;83.79;100613.81;5045881;28;20201;-72
2022/12/28 04:44:23;;;;;;;4.27;1.80;;;;;;;5.46;84.01;100602.31;5030710;28;20229;-73
2022/12/28 04:46:49;;;;;;;4.43;1.60;;;;;;;5.45;84.10;100590.03;5029183;28;20608;-72
2022/12/28 04:49:15;;;;;;;3.00;1.80;;;;;;;5.48;84.19;100587.28;5034313;28;20214;-73
2022/12/28 04:51:42;;;;;;;5.60;1.90;;;;;;;5.47;84.22;100577.63;5041460;28;20216;-73
2022/12/28 04:54:12;;;;;;;3.60;1.70;;;;;;;5.53;84.28;100574.72;5038908;28;20387;-72
2022/12/28 04:56:38;;;;;;;4.37;1.70;;;;;;;5.55;84.25;100558.81;5044161;28;20224;-73
2022/12/28 04:59:06;;;;;;;3.87;2.00;;;;;;;5.59;84.15;100563.88;5037868;28;20213;-72
2022/12/28 05:01:33;;;;;;;4.23;1.60;;;;;;;5.56;84.01;100565.78;5034953;28;20663;-72
2022/12/28 05:04:00;;;;;;;4.97;1.80;;;;;;;5.59;84.34;100571.78;5036660;28;20703;-72
2022/12/28 05:06:27;;;;;;;2.23;1.47;;;;;;;5.64;84.14;100562.81;5043561;28;20212;-72
2022/12/28 05:08:53;;;;;;;2.33;1.50;;;;;;;5.65;84.53;100548.69;5042500;28;20241;-72
2022/12/28 05:11:22;;;;;;;1.90;1.57;;;;;;;5.71;84.41;100553.69;5036639;28;20206;-73
2022/12/28 05:13:48;;;;;;;5.67;1.67;;;;;;;5.77;84.09;100543.69;5034657;28;20230;-72
2022/12/28 05:16:18;;;;;;;2.40;1.43;;;;;;;5.78;84.27;100533.97;5037914;28;20441;-73
2022/12/28 05:18:45;;;;;;;2.43;1.60;;;;;;;5.82;84.28;100540.84;5038247;28;20206;-73
2022/12/28 05:21:13;;;;;;;3.17;1.77;;;;;;;5.79;84.34;100539.19;5035651;28;20214;-73
2022/12/28 05:23:40;;;;;;;2.07;1.83;;;;;;;5.76;84.94;100534.06;5038982;28;20230;-73
2022/12/28 05:26:08;;;;;;;3.00;1.90;;;;;;;5.81;84.88;100533.84;5039704;28;20201;-73
2022/12/28 05:28:34;;;;;;;4.20;1.80;;;;;;;5.81;84.74;100536.50;5037933;28;20676;-72
2022/12/28 05:31:03;;;;;;;3.40;1.60;;;;;;;5.79;85.01;100533.06;5041348;28;20209;-72
2022/12/28 05:33:33;;;;;;;1.90;1.67;;;;;;;5.82;84.92;100525.00;5038979;28;20225;-74
2022/12/28 05:36:03;;;;;;;2.03;1.40;;;;;;;5.85;85.39;100530.16;5045366;28;20213;-72
2022/12/28 05:38:29;;;;;;;2.43;1.67;;;;;;;5.89;84.80;100518.53;5037115;28;20746;-72
2022/12/28 05:40:56;;;;;;;2.93;1.60;;;;;;;5.92;84.81;100526.31;5041797;28;20202;-73
2022/12/28 05:43:22;;;;;;;1.77;1.47;;;;;;;5.91;84.74;100514.06;5035060;28;20230;-73
2022/12/28 05:45:49;;;;;;;4.10;1.90;;;;;;;5.92;85.23;100521.88;5039236;28;20209;-73
2022/12/28 05:48:15;;;;;;;1.90;1.70;;;;;;;5.92;85.26;100508.66;5034510;28;20210;-73
2022/12/28 05:50:43;;;;;;;3.13;1.50;;;;;;;5.95;84.68;100515.59;5038026;28;20214;-72
2022/12/28 05:53:09;;;;;;;2.13;1.43;;;;;;;5.98;85.20;100510.19;5040950;28;20264;-73
2022/12/28 05:55:36;;;;;;;2.50;1.60;;;;;;;5.96;85.42;100522.59;5047335;28;20655;-74
2022/12/28 05:58:02;;;;;;;5.43;1.83;;;;;;;5.98;85.40;100528.69;5046304;28;20206;-73
2022/12/28 06:00:29;;;;;;;3.27;2.13;;;;;;;5.95;85.47;100518.25;5044411;28;20667;-72
2022/12/28 06:02:55;;;;;;;2.97;1.40;;;;;;;5.99;85.16;100519.81;5033929;28;20225;-73
2022/12/28 06:05:21;;;;;;;3.50;2.33;;;;;;;5.99;85.24;100517.19;5044375;28;20749;-72
2022/12/28 06:07:51;;;;;;;1.50;1.40;;;;;;;6.03;85.26;100515.25;5038880;28;20584;-73
2022/12/28 06:10:18;;;;;;;2.93;1.77;;;;;;;6.06;85.37;100508.03;5048700;28;20705;-73
2022/12/28 06:12:44;;;;;;;2.47;1.53;;;;;;;6.04;84.95;100503.75;5035592;28;20297;-73
2022/12/28 06:15:11;;;;;;;3.13;1.20;;;;;;;6.05;85.59;100510.75;5047321;28;20675;-72
2022/12/28 06:17:37;;;;;;;2.83;1.60;;;;;;;6.06;85.22;100508.03;5036087;28;20210;-75
2022/12/28 06:20:04;;;;;;;2.63;1.50;;;;;;;6.15;85.20;100501.44;5042447;28;20205;-73
2022/12/28 06:22:31;;;;;;;1.90;1.70;;;;;;;6.16;85.12;100493.44;5045855;28;20213;-73
2022/12/28 06:24:59;;;;;;;3.27;1.77;;;;;;;6.18;85.18;100488.94;5037674;28;20702;-73
2022/12/28 06:27:25;;;;;;;2.03;1.47;;;;;;;6.16;85.50;100488.16;5044016;28;20659;-73
2022/12/28 06:29:51;;;;;;;2.40;1.27;;;;;;;6.17;85.37;100479.28;5048103;28;20209;-73
2022/12/28 06:32:18;;;;;;;2.60;1.47;;;;;;;6.19;85.14;100487.16;5039389;28;20217;-73
2022/12/28 06:34:44;;;;;;;2.90;1.53;;;;;;;6.24;85.78;100472.78;5038861;28;20321;-73
2022/12/28 06:37:11;;;;;;;3.03;1.40;;;;;;;6.25;85.71;100476.28;5041185;28;20201;-73
2022/12/28 06:39:37;;;;;;;2.87;1.50;;;;;;;6.28;86.08;100469.03;5042336;28;20203;-73
2022/12/28 06:42:05;;;;;;;4.47;1.40;;;;;;;6.28;86.02;100469.03;5042811;28;20221;-73
2022/12/28 06:44:31;;;;;;;2.27;1.70;;;;;;;6.26;86.23;100470.06;5037069;28;20237;-73
2022/12/28 06:46:58;;;;;;;4.13;1.77;;;;;;;6.25;86.29;100468.38;5037646;28;20209;-72
2022/12/28 06:49:24;;;;;;;3.57;1.10;;;;;;;6.28;86.93;100463.75;5043365;28;20259;-73
2022/12/28 06:51:51;;;;;;;2.20;1.37;;;;;;;6.30;86.43;100457.53;5044329;28;20212;-73
2022/12/28 06:54:17;;;;;;;3.67;1.60;;;;;;;6.29;87.10;100461.97;5039702;28;20248;-73
2022/12/28 06:56:44;;;;;;;1.93;1.40;;;;;;;6.29;87.43;100461.97;5036802;28;20682;-73
2022/12/28 06:59:11;;;;;;;2.20;1.40;;;;;;;6.32;87.40;100455.69;5044471;28;20206;-73
2022/12/28 07:01:40;;;;;;;1.80;1.30;;;;;;;6.37;87.57;100456.31;5041124;28;20208;-73
2022/12/28 07:04:08;;;;;;;1.57;1.20;;;;;;;6.41;87.98;100456.09;5044718;28;20229;-73
2022/12/28 07:06:37;;;;;;;2.07;1.63;;;;;;;6.43;88.21;100458.66;5042267;28;20201;-73
2022/12/28 07:09:07;;;;;;;3.63;2.20;;;;;;;6.42;88.35;100452.53;5047543;28;20206;-72
2022/12/28 07:11:34;;;;;;;3.47;1.97;;;;;;;6.43;88.03;100440.16;5045361;28;20210;-71
2022/12/28 07:14:00;;;;;;;2.73;1.30;;;;;;;6.45;88.88;100435.66;5047220;28;20225;-71
2022/12/28 07:16:29;;;;;;;3.20;1.53;;;;;;;6.43;88.98;100435.72;5046145;28;20206;-71
2022/12/28 07:18:57;;;;;;;4.80;3.40;;;;;;;6.43;89.16;100432.22;5046061;28;20205;-72
2022/12/28 07:21:26;;;;;;;1.60;1.30;;;;;;;6.45;89.15;100436.47;5042464;28;20229;-72
2022/12/28 07:23:54;;;;;;;3.33;1.47;;;;;;;6.49;89.59;100447.75;5038426;28;20230;-72
2022/12/28 07:26:23;;;;;;;3.83;1.67;;;;;;;6.45;90.59;100451.53;5041343;28;20226;-71
2022/12/28 07:28:52;;;;;;;2.43;1.50;;;;;;;6.42;90.42;100447.22;5043675;28;20197;-71
2022/12/28 07:31:21;;;;;;;2.60;2.23;;;;;;;6.41;90.67;100439.38;5041513;28;20198;-72
2022/12/28 07:33:50;;;;;;;3.50;2.03;;;;;;;6.38;90.55;100437.72;5038124;28;20245;-71
2022/12/28 07:36:18;;;;;;;2.10;1.60;;;;;;;6.38;91.08;100434.22;5039550;28;20288;-72
2022/12/28 07:38:46;;;;;;;1.90;1.80;;;;;;;6.40;90.83;100443.81;5043199;28;20651;-70
2022/12/28 07:41:14;;;;;;;2.17;1.97;;;;;;;6.39;91.59;100450.03;5046193;28;20209;-71
2022/12/28 07:43:41;;;;;;;1.93;1.57;;;;;;;6.42;91.86;100443.72;5040768;28;20240;-71
2022/12/28 07:46:10;;;;;;;3.00;1.40;;;;;;;6.46;91.44;100442.63;5043739;28;20205;-72
2022/12/28 07:48:38;;;;;;;1.40;1.30;;;;;;;6.47;91.73;100441.69;5042802;28;20206;-72
2022/12/28 07:51:12;;;;;;;2.47;1.43;;;;;;;6.48;91.70;100438.97;5044989;28;20217;-71
2022/12/28 07:53:39;;;;;;;1.47;1.37;;;;;;;6.51;92.12;100433.53;5042910;28;20232;-72
2022/12/28 07:56:08;;;;;;;2.00;1.80;;;;;;;6.49;92.29;100440.69;5044819;28;20202;-70
2022/12/28 07:58:35;;;;;;;2.50;1.50;;;;;;;6.49;91.57;100439.81;5042381;28;20197;-72
2022/12/28 08:01:06;;;;;;;2.77;1.13;;;;;;;6.48;91.96;100451.34;5042821;28;20216;-69
2022/12/28 08:03:33;;;;;;;3.53;1.30;;;;;;;6.50;92.46;100452.13;5039233;28;20566;-73
2022/12/28 08:06:05;;;;;;;2.67;1.83;;;;;;;6.47;92.46;100460.22;5041735;28;20209;-69
2022/12/28 08:08:34;;;;;;;1.80;1.50;;;;;;;6.48;92.97;100452.19;5041920;28;20209;-73
2022/12/28 08:11:04;;;;;;;1.57;1.43;;;;;;;6.48;93.11;100449.56;5044665;28;20216;-72
2022/12/28 08:13:32;;;;;;;1.50;1.00;;;;;;;6.51;93.13;100440.63;5040766;28;20249;-73
2022/12/28 08:15:58;;;;;;;2.13;1.50;;;;;;;6.55;92.82;100448.31;5045787;28;20208;-72
2022/12/28 08:18:24;;;;;;;1.50;1.30;;;;;;;6.57;92.87;100449.13;5040904;28;20216;-72
2022/12/28 08:20:51;;;;;;;2.37;1.10;;;;;;;6.61;93.00;100444.53;5046343;28;20212;-73
2022/12/28 08:23:17;;;;;;;1.20;1.10;;;;;;;6.69;93.49;100434.41;5045046;28;20253;-72
2022/12/28 08:25:45;;;;;;;2.57;1.20;;;;;;;6.67;93.55;100446.00;5042552;28;20222;-73
2022/12/28 08:28:12;;;;;;;3.40;1.93;;;;;;;6.69;93.99;100434.41;5041369;28;20209;-73
2022/12/28 08:30:38;;;;;;;1.23;1.13;;;;;;;6.69;93.86;100450.28;5040904;28;20214;-73
2022/12/28 08:33:04;;;;;;;1.60;1.20;;;;;;;6.66;94.15;100445.13;5042979;28;20761;-74
2022/12/28 08:35:31;;;;;;;2.00;1.33;;;;;;;6.68;94.10;100445.91;5043713;28;20198;-73
2022/12/28 08:37:57;;;;;;;1.90;1.37;;;;;;;6.71;94.10;100427.25;5043810;28;20201;-73
2022/12/28 08:40:28;;;;;;;2.03;1.20;;;;;;;6.77;94.08;100432.22;5044179;28;20221;-72
2022/12/28 08:42:57;;;;;;;2.10;1.10;;;;;;;6.79;93.74;100426.84;5043008;28;20818;-72
2022/12/28 08:45:24;;;;;;;1.80;1.30;;;;;;;6.78;93.54;100433.94;5040790;28;20240;-73
2022/12/28 08:47:50;;;;;;;2.23;1.30;;;;;;;6.77;94.38;100432.22;5041188;28;20198;-72
2022/12/28 08:50:17;;;;;;;2.53;1.47;;;;;;;6.79;93.79;100435.66;5043084;28;20204;-72
2022/12/28 08:52:43;;;;;;;2.20;1.30;;;;;;;6.84;93.77;100443.34;5044507;28;20626;-72
2022/12/28 08:55:09;;;;;;;1.20;1.00;;;;;;;6.85;93.97;100439.75;5044644;28;20206;-71
2022/12/28 08:57:36;;;;;;;2.27;1.40;;;;;;;6.85;93.83;100442.41;5044116;28;20210;-72
2022/12/28 09:00:06;;;;;;;2.17;1.33;;;;;;;6.87;93.24;100451.13;5045049;28;20213;-72
2022/12/28 09:02:32;;;;;;;2.03;1.10;;;;;;;6.88;93.61;100443.13;5045117;28;20472;-74
2022/12/28 09:04:58;;;;;;;2.33;1.27;;;;;;;6.89;93.57;100454.56;5047552;28;20241;-73
2022/12/28 09:07:25;;;;;;;1.60;1.20;;;;;;;6.91;93.44;100452.69;5048297;28;20220;-72
2022/12/28 09:09:51;;;;;;;1.60;1.20;;;;;;;6.92;93.63;100457.91;5047816;28;20232;-72
2022/12/28 09:12:18;;;;;;;1.60;1.40;;;;;;;6.93;93.53;100458.78;5048759;28;20695;-72
2022/12/28 09:14:44;;;;;;;2.80;1.90;;;;;;;6.96;93.75;100464.78;5043312;28;20217;-72
2022/12/28 09:17:12;;;;;;;2.33;1.50;;;;;;;7.00;93.28;100454.84;5045826;28;20667;-72
2022/12/28 09:19:38;;;;;;;2.23;1.30;;;;;;;6.98;93.82;100459.41;5048885;28;20694;-72
2022/12/28 09:22:05;;;;;;;1.63;1.10;;;;;;;6.99;93.48;100469.03;5049708;28;20216;-72
2022/12/28 09:24:31;;;;;;;2.00;1.40;;;;;;;7.03;93.08;100448.53;5046001;28;20237;-72
2022/12/28 09:26:58;;;;;;;2.00;1.50;;;;;;;7.04;93.33;100460.84;5049016;28;20210;-72
2022/12/28 09:29:24;;;;;;;1.60;1.30;;;;;;;7.06;93.17;100453.69;5043280;28;20201;-72
2022/12/28 09:31:50;;;;;;;2.13;1.10;;;;;;;7.09;93.24;100457.03;5044025;28;20232;-72
2022/12/28 09:34:18;;;;;;;1.67;1.13;;;;;;;7.10;93.74;100452.59;5045383;28;20225;-72
2022/12/28 09:36:45;;;;;;;1.70;1.30;;;;;;;7.09;93.71;100451.75;5048844;28;20970;-71
2022/12/28 09:39:15;;;;;;;1.30;1.00;;;;;;;7.12;94.29;100458.69;5039507;28;20209;-72
2022/12/28 09:41:47;;;;;;;2.43;1.33;;;;;;;7.14;93.71;100460.31;5044310;28;20565;-70
2022/12/28 09:44:34;;;;;;;2.10;1.70;;;;;;;7.21;94.28;100455.53;5046367;28;20248;-73
2022/12/28 09:47:11;;;;;;;2.70;1.37;;;;;;;7.23;93.74;100461.59;5048905;28;20208;-73
2022/12/28 09:49:44;;;;;;;1.80;1.20;;;;;;;7.26;93.78;100461.44;5051573;28;20193;-73
2022/12/28 09:52:24;;;;;;;1.43;1.13;;;;;;;7.26;94.41;100462.31;5051389;28;20208;-73
2022/12/28 09:54:51;;;;;;;1.63;1.30;;;;;;;7.29;94.16;100469.25;5050474;28;20217;-73
2022/12/28 09:57:19;;;;;;;1.30;1.10;;;;;;;7.39;94.79;100453.69;5051290;28;20686;-73
2022/12/28 09:59:47;;;;;;;2.90;1.07;;;;;;;7.39;94.33;100462.50;5047121;28;20288;-73
2022/12/28 10:02:19;;;;;;;1.10;0.80;;;;;;;7.45;94.07;100448.94;5050302;28;20204;-73
2022/12/28 10:04:49;;;;;;;0.90;0.70;;;;;;;7.48;95.05;100466.47;5048793;28;20541;-73
2022/12/28 10:07:16;;;;;;;1.33;1.23;;;;;;;7.49;95.14;100461.09;5047814;28;20219;-74
2022/12/28 10:09:42;;;;;;;1.27;0.93;;;;;;;7.49;95.14;100465.53;5045120;28;20558;-74
2022/12/28 10:12:14;;;;;;;0.80;0.80;;;;;;;7.52;95.19;100452.13;5044120;28;20276;-73
2022/12/28 10:14:41;;;;;;;1.90;0.90;;;;;;;7.54;95.21;100461.69;5043682;28;20225;-71
2022/12/28 10:17:11;;;;;;;2.30;0.57;;;;;;;7.55;95.17;100452.78;5047334;28;20209;-73
2022/12/28 10:19:38;;;;;;;0.80;0.80;;;;;;;7.57;94.60;100461.53;5046332;28;20216;-74
2022/12/28 10:22:08;;;;;;;0.70;0.70;;;;;;;7.62;94.97;100458.63;5043190;28;20474;-72
2022/12/28 10:24:35;;;;;;;1.90;1.13;;;;;;;7.58;95.57;100457.06;5046034;28;20225;-72
2022/12/28 10:27:04;;;;;;;1.63;1.00;;;;;;;7.58;95.92;100457.94;5045660;28;20208;-72
2022/12/28 10:29:32;;;;;;;1.30;0.80;;;;;;;7.57;96.39;100452.72;5043863;28;20202;-72
2022/12/28 10:32:01;;;;;;;0.80;0.80;;;;;;;7.61;96.08;100452.47;5048768;28;20213;-72
2022/12/28 10:34:29;;;;;;;1.80;0.80;;;;;;;7.61;96.14;100441.88;5057838;22;20593;-74
2022/12/28 10:37:03;;;;;;;0.87;0.77;;;;;;;7.62;96.91;100448.03;5048474;28;20264;-74
2022/12/28 10:39:33;;;;;;;0.70;0.60;;;;;;;7.64;96.89;100432.91;5052507;28;20216;-73
2022/12/28 10:42:00;;;;;;;1.87;0.90;;;;;;;7.66;97.02;100441.63;5040981;28;20227;-72
2022/12/28 10:44:30;;;;;;;1.67;1.40;;;;;;;7.66;97.18;100431.03;5043525;28;20245;-72
2022/12/28 10:47:00;;;;;;;1.50;1.20;;;;;;;7.65;97.55;100426.66;5047329;28;20205;-72
2022/12/28 10:49:31;;;;;;;1.63;1.37;;;;;;;7.64;98.43;100420.50;5041866;28;20208;-73
2022/12/28 10:52:04;;;;;;;1.87;1.10;;;;;;;7.66;98.07;100412.47;5043955;28;20210;-72
2022/12/28 10:54:34;;;;;;;1.20;1.00;;;;;;;7.68;98.60;100415.03;5041326;28;20233;-73
2022/12/28 10:57:01;;;;;;;2.80;1.50;;;;;;;7.70;98.22;100413.16;5040756;28;20229;-72
2022/12/28 10:59:30;;;;;;;2.67;1.67;;;;;;;7.73;98.67;100405.00;5034770;28;20206;-73
2022/12/28 11:02:22;;;;;;;1.50;1.07;;;;;;;7.77;98.35;100414.53;5032582;28;20205;-73
2022/12/28 11:04:56;;;;;;;3.80;3.60;;;;;;;7.77;98.72;100411.88;5036758;28;20222;-75
2022/12/28 11:07:32;;;;;;;1.47;1.17;;;;;;;7.80;99.06;100406.41;5035752;28;20271;-73
2022/12/28 11:10:22;;;;;;;3.03;2.73;;;;;;;7.83;99.07;100408.88;5039092;28;20700;-73
2022/12/28 11:12:49;;;;;;;4.53;4.07;;;;;;;7.84;98.83;100408.81;5036087;28;20742;-73
2022/12/28 11:15:18;;;;;;;1.70;1.20;;;;;;;7.86;98.76;100398.13;5038557;28;20217;-73
2022/12/28 11:17:50;;;;;;;1.23;1.13;;;;;;;7.89;99.00;100387.31;5035818;28;20221;-73
2022/12/28 11:20:19;;;;;;;3.90;0.67;;;;;;;7.93;98.60;100378.25;5041585;28;20210;-73
2022/12/28 11:22:47;;;;;;;1.20;1.10;;;;;;;7.95;98.92;100381.66;5036566;28;20205;-72
2022/12/28 11:25:17;;;;;;;1.13;0.70;;;;;;;7.96;98.34;100388.69;5037632;28;20706;-73
2022/12/28 11:27:45;;;;;;;1.00;0.80;;;;;;;7.98;98.88;100381.50;5037714;28;20695;-72
2022/12/28 11:30:15;;;;;;;0.70;0.70;;;;;;;7.99;98.66;100373.47;5043191;28;20248;-73
2022/12/28 11:32:47;;;;;;;1.63;0.50;;;;;;;8.01;98.72;100381.34;5041621;28;20287;-72
2022/12/28 11:35:16;;;;;;;1.10;1.00;;;;;;;8.04;99.18;100372.34;5036954;28;20229;-72
2022/12/28 11:37:49;;;;;;;0.70;0.70;;;;;;;8.09;98.67;100372.91;5033612;28;20703;-72
2022/12/28 11:40:47;;;;;;;1.17;0.90;;;;;;;8.10;98.48;100369.31;5037672;28;20213;-72
2022/12/28 11:43:47;;;;;;;1.33;0.87;;;;;;;8.10;98.36;100364.88;5036499;28;20233;-73
2022/12/28 11:46:41;;;;;;;1.13;0.60;;;;;;;8.19;98.49;100361.72;5033917;28;20733;-73
2022/12/28 11:49:30;;;;;;;1.00;0.70;;;;;;;8.22;97.97;100360.69;5040883;28;20667;-72
2022/12/28 11:52:42;;;;;;;2.30;1.20;;;;;;;8.20;97.91;100357.25;5039233;28;20216;-73
2022/12/28 11:55:36;;;;;;;4.13;3.73;;;;;;;8.19;98.50;100363.50;5037061;28;20225;-72
2022/12/28 12:00:58;;;;;;;2.10;1.90;;;;;;;8.21;97.82;100357.19;5059640;27;20561;-74
2022/12/28 12:04:09;;;;;;;2.30;1.27;;;;;;;8.22;98.12;100344.75;5032057;28;20221;-74
2022/12/28 12:07:27;;;;;;;0.70;0.70;;;;;;;8.24;98.01;100362.28;5037375;28;20217;-74
2022/12/28 12:10:27;;;;;;;3.30;2.00;;;;;;;8.23;97.38;100349.97;5038257;28;20209;-74
2022/12/28 12:12:53;;;;;;;1.73;1.63;;;;;;;8.23;97.60;100349.97;5034153;28;20292;-74
2022/12/28 12:15:25;;;;;;;3.33;1.80;;;;;;;8.25;97.46;100347.22;5030874;28;21008;-75
2022/12/28 12:17:58;;;;;;;1.13;1.03;;;;;;;8.24;97.58;100341.03;5033876;28;20201;-75